sensor_id;sensor_type;location;lat;lon;timestamp;pressure;altitude;pressure_sealevel;temperature;humidity
38616;BME280;24370;51.986;4.666;2023-07-20T00:02:10;101555.84;;;24.82;55.85
38616;BME280;24370;51.986;4.666;2023-07-20T00:04:35;101556.50;;;25.16;54.55
38616;BME280;24370;51.986;4.666;2023-07-20T00:07:01;101547.03;;;25.11;53.98
38616;BME280;24370;51.986;4.666;2023-07-20T00:09:26;101550.41;;;25.14;54.40
38616;BME280;24370;51.986;4.666;2023-07-20T00:11:52;101553.53;;;25.21;54.33
38616;BME280;24370;51.986;4.666;2023-07-20T00:14:18;101563.38;;;25.20;53.23
38616;BME280;24370;51.986;4.666;2023-07-20T00:16:49;101554.81;;;25.30;53.17
38616;BME280;24370;51.986;4.666;2023-07-20T00:19:22;101558.19;;;24.72;54.61
38616;BME280;24370;51.986;4.666;2023-07-20T00:21:48;101557.44;;;24.70;54.73
38616;BME280;24370;51.986;4.666;2023-07-20T00:24:14;101547.06;;;24.80;54.23
38616;BME280;24370;51.986;4.666;2023-07-20T00:26:39;101555.44;;;24.42;55.24
38616;BME280;24370;51.986;4.666;2023-07-20T00:29:04;101556.00;;;24.65;55.16
38616;BME280;24370;51.986;4.666;2023-07-20T00:31:30;101553.31;;;24.01;57.10
38616;BME280;24370;51.986;4.666;2023-07-20T00:33:56;101561.22;;;24.34;57.27
38616;BME280;24370;51.986;4.666;2023-07-20T00:36:21;101551.75;;;24.29;56.96
38616;BME280;24370;51.986;4.666;2023-07-20T00:38:46;101555.22;;;24.31;56.72
38616;BME280;24370;51.986;4.666;2023-07-20T00:41:12;101554.78;;;24.22;57.16
38616;BME280;24370;51.986;4.666;2023-07-20T00:43:38;101566.03;;;24.44;56.50
38616;BME280;24370;51.986;4.666;2023-07-20T00:46:04;101557.97;;;24.92;54.77
38616;BME280;24370;51.986;4.666;2023-07-20T00:48:31;101552.94;;;24.71;55.04
38616;BME280;24370;51.986;4.666;2023-07-20T00:50:58;101562.94;;;24.51;55.71
38616;BME280;24370;51.986;4.666;2023-07-20T00:53:24;101550.53;;;24.50;55.80
38616;BME280;24370;51.986;4.666;2023-07-20T00:55:49;101565.34;;;24.72;55.45
38616;BME280;24370;51.986;4.666;2023-07-20T00:58:15;101557.03;;;24.93;54.22
38616;BME280;24370;51.986;4.666;2023-07-20T01:00:40;101562.72;;;24.86;54.96
38616;BME280;24370;51.986;4.666;2023-07-20T01:03:06;101550.19;;;24.56;54.74
38616;BME280;24370;51.986;4.666;2023-07-20T01:05:54;101556.28;;;25.05;53.47
38616;BME280;24370;51.986;4.666;2023-07-20T01:11:41;101553.81;;;24.55;54.45
38616;BME280;24370;51.986;4.666;2023-07-20T01:14:08;101556.25;;;24.44;54.25
38616;BME280;24370;51.986;4.666;2023-07-20T01:16:34;101567.00;;;24.75;54.04
38616;BME280;24370;51.986;4.666;2023-07-20T01:18:59;101560.69;;;24.60;54.07
38616;BME280;24370;51.986;4.666;2023-07-20T01:21:32;101561.19;;;24.82;52.46
38616;BME280;24370;51.986;4.666;2023-07-20T01:24:14;101564.56;;;25.00;51.89
38616;BME280;24370;51.986;4.666;2023-07-20T01:27:00;101564.00;;;24.65;53.04
38616;BME280;24370;51.986;4.666;2023-07-20T01:32:09;101568.97;;;24.71;52.84
38616;BME280;24370;51.986;4.666;2023-07-20T01:34:35;101574.69;;;24.65;53.14
38616;BME280;24370;51.986;4.666;2023-07-20T01:37:02;101569.38;;;24.79;52.52
38616;BME280;24370;51.986;4.666;2023-07-20T01:39:28;101566.41;;;24.69;52.72
38616;BME280;24370;51.986;4.666;2023-07-20T01:41:54;101563.41;;;24.28;53.88
38616;BME280;24370;51.986;4.666;2023-07-20T01:44:20;101566.66;;;24.01;54.19
38616;BME280;24370;51.986;4.666;2023-07-20T01:46:46;101570.34;;;24.30;54.13
38616;BME280;24370;51.986;4.666;2023-07-20T01:49:11;101575.47;;;24.35;54.00
38616;BME280;24370;51.986;4.666;2023-07-20T01:51:37;101580.72;;;24.52;52.41
38616;BME280;24370;51.986;4.666;2023-07-20T01:54:02;101577.94;;;24.38;53.01
38616;BME280;24370;51.986;4.666;2023-07-20T01:56:28;101576.72;;;24.44;52.82
38616;BME280;24370;51.986;4.666;2023-07-20T01:58:53;101582.78;;;24.31;52.86
38616;BME280;24370;51.986;4.666;2023-07-20T02:01:18;101575.22;;;24.24;52.85
38616;BME280;24370;51.986;4.666;2023-07-20T02:03:44;101580.53;;;24.55;52.06
38616;BME280;24370;51.986;4.666;2023-07-20T02:06:09;101577.66;;;24.43;52.12
38616;BME280;24370;51.986;4.666;2023-07-20T02:08:35;101584.84;;;24.42;52.05
38616;BME280;24370;51.986;4.666;2023-07-20T02:11:01;101581.47;;;23.73;54.08
38616;BME280;24370;51.986;4.666;2023-07-20T02:13:26;101581.19;;;23.62;54.67
38616;BME280;24370;51.986;4.666;2023-07-20T02:15:51;101584.78;;;23.78;53.99
38616;BME280;24370;51.986;4.666;2023-07-20T02:18:17;101585.16;;;23.37;54.46
38616;BME280;24370;51.986;4.666;2023-07-20T02:20:42;101586.72;;;23.41;54.86
38616;BME280;24370;51.986;4.666;2023-07-20T02:23:08;101587.25;;;23.48;54.64
38616;BME280;24370;51.986;4.666;2023-07-20T02:25:34;101580.09;;;23.66;54.15
38616;BME280;24370;51.986;4.666;2023-07-20T02:27:59;101584.25;;;23.87;52.86
38616;BME280;24370;51.986;4.666;2023-07-20T02:30:25;101585.09;;;23.72;53.47
38616;BME280;24370;51.986;4.666;2023-07-20T02:32:50;101583.22;;;23.74;53.27
38616;BME280;24370;51.986;4.666;2023-07-20T02:35:16;101579.63;;;23.58;53.36
38616;BME280;24370;51.986;4.666;2023-07-20T02:37:41;101587.59;;;23.75;52.80
38616;BME280;24370;51.986;4.666;2023-07-20T02:40:07;101580.19;;;23.98;52.38
38616;BME280;24370;51.986;4.666;2023-07-20T02:42:35;101575.38;;;24.04;51.37
38616;BME280;24370;51.986;4.666;2023-07-20T02:45:02;101574.59;;;24.18;51.64
38616;BME280;24370;51.986;4.666;2023-07-20T02:47:28;101577.25;;;24.18;51.13
38616;BME280;24370;51.986;4.666;2023-07-20T02:49:54;101580.81;;;23.85;51.81
38616;BME280;24370;51.986;4.666;2023-07-20T02:52:19;101582.00;;;24.29;50.19
38616;BME280;24370;51.986;4.666;2023-07-20T02:54:45;101585.59;;;24.12;51.07
38616;BME280;24370;51.986;4.666;2023-07-20T02:57:10;101595.59;;;23.75;51.74
38616;BME280;24370;51.986;4.666;2023-07-20T02:59:36;101598.44;;;23.72;51.84
38616;BME280;24370;51.986;4.666;2023-07-20T03:02:01;101601.63;;;23.79;51.92
38616;BME280;24370;51.986;4.666;2023-07-20T03:04:26;101597.78;;;23.84;51.28
38616;BME280;24370;51.986;4.666;2023-07-20T03:06:52;101603.69;;;23.56;52.36
38616;BME280;24370;51.986;4.666;2023-07-20T03:09:18;101603.09;;;24.02;50.97
38616;BME280;24370;51.986;4.666;2023-07-20T03:11:43;101611.50;;;23.77;51.15
38616;BME280;24370;51.986;4.666;2023-07-20T03:14:08;101611.88;;;23.53;52.64
38616;BME280;24370;51.986;4.666;2023-07-20T03:16:35;101618.22;;;23.50;52.13
38616;BME280;24370;51.986;4.666;2023-07-20T03:19:01;101615.81;;;23.46;51.85
38616;BME280;24370;51.986;4.666;2023-07-20T03:21:26;101618.44;;;23.12;52.99
38616;BME280;24370;51.986;4.666;2023-07-20T03:23:52;101625.47;;;23.13;53.83
38616;BME280;24370;51.986;4.666;2023-07-20T03:26:17;101618.53;;;23.09;53.72
38616;BME280;24370;51.986;4.666;2023-07-20T03:28:42;101614.34;;;23.23;53.26
38616;BME280;24370;51.986;4.666;2023-07-20T03:31:08;101610.09;;;23.36;53.24
38616;BME280;24370;51.986;4.666;2023-07-20T03:33:34;101608.47;;;23.67;52.26
38616;BME280;24370;51.986;4.666;2023-07-20T03:36:00;101609.47;;;23.99;50.43
38616;BME280;24370;51.986;4.666;2023-07-20T03:38:26;101619.69;;;23.74;51.24
38616;BME280;24370;51.986;4.666;2023-07-20T03:40:53;101615.34;;;23.55;51.94
38616;BME280;24370;51.986;4.666;2023-07-20T03:43:20;101614.88;;;23.80;51.07
38616;BME280;24370;51.986;4.666;2023-07-20T03:45:46;101605.88;;;23.49;51.75
38616;BME280;24370;51.986;4.666;2023-07-20T03:48:13;101607.69;;;23.82;50.47
38616;BME280;24370;51.986;4.666;2023-07-20T03:50:39;101610.38;;;23.65;50.57
38616;BME280;24370;51.986;4.666;2023-07-20T03:53:04;101613.03;;;23.82;50.47
38616;BME280;24370;51.986;4.666;2023-07-20T03:55:30;101610.19;;;23.85;49.55
38616;BME280;24370;51.986;4.666;2023-07-20T03:57:56;101607.91;;;23.95;48.85
38616;BME280;24370;51.986;4.666;2023-07-20T04:00:21;101608.06;;;23.41;51.19
38616;BME280;24370;51.986;4.666;2023-07-20T04:02:46;101610.28;;;23.33;51.72
38616;BME280;24370;51.986;4.666;2023-07-20T04:05:12;101618.09;;;23.18;52.46
38616;BME280;24370;51.986;4.666;2023-07-20T04:07:37;101617.63;;;23.28;52.31
38616;BME280;24370;51.986;4.666;2023-07-20T04:10:03;101618.66;;;22.88;53.92
38616;BME280;24370;51.986;4.666;2023-07-20T04:12:29;101625.00;;;23.23;52.39
38616;BME280;24370;51.986;4.666;2023-07-20T04:14:54;101622.09;;;23.27;52.33
38616;BME280;24370;51.986;4.666;2023-07-20T04:17:19;101625.91;;;23.04;53.27
38616;BME280;24370;51.986;4.666;2023-07-20T04:19:45;101620.59;;;23.39;52.89
38616;BME280;24370;51.986;4.666;2023-07-20T04:22:10;101620.44;;;23.42;52.30
38616;BME280;24370;51.986;4.666;2023-07-20T04:24:35;101625.47;;;23.31;52.44
38616;BME280;24370;51.986;4.666;2023-07-20T04:27:01;101623.56;;;23.50;51.74
38616;BME280;24370;51.986;4.666;2023-07-20T04:29:27;101624.75;;;23.45;52.39
38616;BME280;24370;51.986;4.666;2023-07-20T04:31:52;101623.56;;;23.50;52.02
38616;BME280;24370;51.986;4.666;2023-07-20T04:34:17;101627.03;;;23.17;53.53
38616;BME280;24370;51.986;4.666;2023-07-20T04:36:43;101619.13;;;23.51;52.48
38616;BME280;24370;51.986;4.666;2023-07-20T04:39:09;101633.97;;;23.72;52.39
38616;BME280;24370;51.986;4.666;2023-07-20T04:41:35;101633.75;;;23.95;52.30
38616;BME280;24370;51.986;4.666;2023-07-20T04:44:00;101624.78;;;23.96;52.47
38616;BME280;24370;51.986;4.666;2023-07-20T04:46:26;101623.44;;;24.20;51.96
38616;BME280;24370;51.986;4.666;2023-07-20T04:48:51;101627.69;;;23.91;53.11
38616;BME280;24370;51.986;4.666;2023-07-20T04:51:17;101628.09;;;24.49;51.87
38616;BME280;24370;51.986;4.666;2023-07-20T04:53:48;101637.34;;;24.75;51.01
38616;BME280;24370;51.986;4.666;2023-07-20T04:56:14;101633.16;;;25.32;49.53
38616;BME280;24370;51.986;4.666;2023-07-20T04:58:39;101630.81;;;25.42;50.07
38616;BME280;24370;51.986;4.666;2023-07-20T05:01:05;101624.06;;;25.94;48.67
38616;BME280;24370;51.986;4.666;2023-07-20T05:03:30;101625.44;;;26.01;48.02
38616;BME280;24370;51.986;4.666;2023-07-20T05:05:56;101627.41;;;24.93;49.60
38616;BME280;24370;51.986;4.666;2023-07-20T05:08:22;101632.28;;;25.47;49.26
38616;BME280;24370;51.986;4.666;2023-07-20T05:10:48;101637.66;;;25.01;49.70
38616;BME280;24370;51.986;4.666;2023-07-20T05:13:13;101637.75;;;24.51;51.74
38616;BME280;24370;51.986;4.666;2023-07-20T05:15:39;101636.44;;;25.37;49.88
38616;BME280;24370;51.986;4.666;2023-07-20T05:18:04;101643.94;;;25.61;50.15
38616;BME280;24370;51.986;4.666;2023-07-20T05:20:30;101646.75;;;25.88;49.28
38616;BME280;24370;51.986;4.666;2023-07-20T05:22:57;101650.63;;;25.23;50.65
38616;BME280;24370;51.986;4.666;2023-07-20T05:25:22;101655.03;;;23.96;54.35
38616;BME280;24370;51.986;4.666;2023-07-20T05:27:48;101643.38;;;23.97;56.01
38616;BME280;24370;51.986;4.666;2023-07-20T05:30:13;101655.16;;;25.06;52.17
38616;BME280;24370;51.986;4.666;2023-07-20T05:32:39;101652.56;;;25.51;50.78
38616;BME280;24370;51.986;4.666;2023-07-20T05:35:05;101647.88;;;25.09;51.26
38616;BME280;24370;51.986;4.666;2023-07-20T05:37:30;101653.66;;;24.70;53.39
38616;BME280;24370;51.986;4.666;2023-07-20T05:39:56;101650.63;;;25.39;50.73
38616;BME280;24370;51.986;4.666;2023-07-20T05:42:22;101650.81;;;24.08;53.59
38616;BME280;24370;51.986;4.666;2023-07-20T05:44:47;101651.22;;;24.98;52.30
38616;BME280;24370;51.986;4.666;2023-07-20T05:47:14;101643.09;;;24.99;52.67
38616;BME280;24370;51.986;4.666;2023-07-20T05:49:40;101643.72;;;25.35;51.57
38616;BME280;24370;51.986;4.666;2023-07-20T05:52:05;101645.16;;;24.46;52.01
38616;BME280;24370;51.986;4.666;2023-07-20T05:54:31;101640.00;;;24.91;52.47
38616;BME280;24370;51.986;4.666;2023-07-20T05:56:56;101643.03;;;24.85;52.67
38616;BME280;24370;51.986;4.666;2023-07-20T05:59:22;101642.16;;;25.31;51.83
38616;BME280;24370;51.986;4.666;2023-07-20T06:01:49;101638.97;;;24.78;52.53
38616;BME280;24370;51.986;4.666;2023-07-20T06:04:14;101648.53;;;25.59;50.05
38616;BME280;24370;51.986;4.666;2023-07-20T06:06:40;101643.09;;;25.30;48.70
38616;BME280;24370;51.986;4.666;2023-07-20T06:09:06;101643.09;;;25.30;49.18
38616;BME280;24370;51.986;4.666;2023-07-20T06:11:35;101647.34;;;25.34;49.61
38616;BME280;24370;51.986;4.666;2023-07-20T06:14:01;101653.75;;;24.69;50.84
38616;BME280;24370;51.986;4.666;2023-07-20T06:16:27;101646.38;;;24.56;52.11
38616;BME280;24370;51.986;4.666;2023-07-20T06:18:52;101661.47;;;24.42;51.76
38616;BME280;24370;51.986;4.666;2023-07-20T06:21:17;101660.19;;;24.97;50.29
38616;BME280;24370;51.986;4.666;2023-07-20T06:23:43;101659.28;;;24.96;48.49
38616;BME280;24370;51.986;4.666;2023-07-20T06:26:08;101651.06;;;24.69;48.38
38616;BME280;24370;51.986;4.666;2023-07-20T06:28:34;101657.38;;;25.14;49.30
38616;BME280;24370;51.986;4.666;2023-07-20T06:31:03;101658.41;;;25.72;49.23
38616;BME280;24370;51.986;4.666;2023-07-20T06:33:29;101658.97;;;25.63;48.64
38616;BME280;24370;51.986;4.666;2023-07-20T06:35:54;101668.28;;;26.01;46.30
38616;BME280;24370;51.986;4.666;2023-07-20T06:38:22;101667.31;;;26.31;44.40
38616;BME280;24370;51.986;4.666;2023-07-20T06:40:48;101661.31;;;28.15;42.50
38616;BME280;24370;51.986;4.666;2023-07-20T06:43:14;101668.66;;;29.58;40.09
38616;BME280;24370;51.986;4.666;2023-07-20T06:45:40;101663.56;;;30.23;37.98
38616;BME280;24370;51.986;4.666;2023-07-20T06:48:05;101673.91;;;28.65;37.79
38616;BME280;24370;51.986;4.666;2023-07-20T06:50:31;101670.75;;;27.95;40.28
38616;BME280;24370;51.986;4.666;2023-07-20T06:52:56;101662.81;;;28.56;41.17
38616;BME280;24370;51.986;4.666;2023-07-20T06:55:24;101673.66;;;28.68;42.21
38616;BME280;24370;51.986;4.666;2023-07-20T06:57:49;101669.50;;;29.23;39.27
38616;BME280;24370;51.986;4.666;2023-07-20T07:00:15;101671.69;;;28.70;37.12
38616;BME280;24370;51.986;4.666;2023-07-20T07:02:40;101672.63;;;28.82;38.12
38616;BME280;24370;51.986;4.666;2023-07-20T07:05:06;101668.75;;;29.10;37.65
38616;BME280;24370;51.986;4.666;2023-07-20T07:07:33;101669.41;;;31.06;35.00
38616;BME280;24370;51.986;4.666;2023-07-20T07:09:59;101681.19;;;29.82;34.59
38616;BME280;24370;51.986;4.666;2023-07-20T07:12:25;101674.47;;;30.33;35.07
38616;BME280;24370;51.986;4.666;2023-07-20T07:14:51;101675.97;;;28.85;38.18
38616;BME280;24370;51.986;4.666;2023-07-20T07:17:16;101678.63;;;28.11;41.51
38616;BME280;24370;51.986;4.666;2023-07-20T07:19:41;101676.78;;;27.99;41.81
38616;BME280;24370;51.986;4.666;2023-07-20T07:22:07;101680.72;;;27.27;42.20
38616;BME280;24370;51.986;4.666;2023-07-20T07:24:33;101678.69;;;27.45;42.09
38616;BME280;24370;51.986;4.666;2023-07-20T07:27:00;101681.09;;;28.14;38.20
38616;BME280;24370;51.986;4.666;2023-07-20T07:29:26;101669.22;;;29.98;38.54
38616;BME280;24370;51.986;4.666;2023-07-20T07:31:52;101669.97;;;30.89;38.43
38616;BME280;24370;51.986;4.666;2023-07-20T07:34:17;101676.44;;;31.72;30.50
38616;BME280;24370;51.986;4.666;2023-07-20T07:36:43;101672.97;;;33.22;32.84
38616;BME280;24370;51.986;4.666;2023-07-20T07:39:09;101675.84;;;33.40;32.56
38616;BME280;24370;51.986;4.666;2023-07-20T07:41:34;101677.16;;;33.93;28.31
38616;BME280;24370;51.986;4.666;2023-07-20T07:44:00;101678.25;;;34.38;27.51
38616;BME280;24370;51.986;4.666;2023-07-20T07:46:25;101680.72;;;33.26;29.21
38616;BME280;24370;51.986;4.666;2023-07-20T07:48:51;101677.22;;;33.63;30.12
38616;BME280;24370;51.986;4.666;2023-07-20T07:51:16;101670.88;;;35.56;26.09
38616;BME280;24370;51.986;4.666;2023-07-20T07:53:42;101680.69;;;35.49;26.97
38616;BME280;24370;51.986;4.666;2023-07-20T07:56:08;101681.88;;;36.42;25.49
38616;BME280;24370;51.986;4.666;2023-07-20T07:58:34;101683.16;;;37.05;23.96
38616;BME280;24370;51.986;4.666;2023-07-20T08:01:00;101683.28;;;36.71;22.99
38616;BME280;24370;51.986;4.666;2023-07-20T08:03:26;101682.69;;;35.99;25.60
38616;BME280;24370;51.986;4.666;2023-07-20T08:05:56;101672.94;;;35.62;24.17
38616;BME280;24370;51.986;4.666;2023-07-20T08:08:22;101672.81;;;35.90;24.37
38616;BME280;24370;51.986;4.666;2023-07-20T08:10:48;101682.59;;;34.94;27.08
38616;BME280;24370;51.986;4.666;2023-07-20T08:13:13;101677.22;;;32.65;31.67
38616;BME280;24370;51.986;4.666;2023-07-20T08:15:41;101687.22;;;31.51;29.42
38616;BME280;24370;51.986;4.666;2023-07-20T08:18:06;101690.97;;;29.83;31.78
38616;BME280;24370;51.986;4.666;2023-07-20T08:20:33;101693.94;;;29.80;32.48
38616;BME280;24370;51.986;4.666;2023-07-20T08:23:01;101680.72;;;33.26;30.55
38616;BME280;24370;51.986;4.666;2023-07-20T08:25:26;101694.22;;;34.41;29.88
38616;BME280;24370;51.986;4.666;2023-07-20T08:27:52;101689.84;;;34.76;26.00
38616;BME280;24370;51.986;4.666;2023-07-20T08:30:17;101682.63;;;34.11;28.69
38616;BME280;24370;51.986;4.666;2023-07-20T08:32:43;101685.53;;;35.37;29.52
38616;BME280;24370;51.986;4.666;2023-07-20T08:35:08;101682.31;;;36.88;25.24
38616;BME280;24370;51.986;4.666;2023-07-20T08:37:34;101678.69;;;36.20;25.97
38616;BME280;24370;51.986;4.666;2023-07-20T08:40:00;101667.88;;;34.69;27.46
38616;BME280;24370;51.986;4.666;2023-07-20T08:42:27;101680.84;;;33.44;28.71
38616;BME280;24370;51.986;4.666;2023-07-20T08:44:52;101686.94;;;32.78;28.56
38616;BME280;24370;51.986;4.666;2023-07-20T08:47:20;101683.41;;;33.93;28.29
38616;BME280;24370;51.986;4.666;2023-07-20T08:49:50;101687.66;;;32.29;31.36
38616;BME280;24370;51.986;4.666;2023-07-20T08:52:16;101684.72;;;31.38;31.01
38616;BME280;24370;51.986;4.666;2023-07-20T08:54:41;101682.38;;;31.45;30.96
38616;BME280;24370;51.986;4.666;2023-07-20T08:57:07;101693.25;;;30.12;32.76
38616;BME280;24370;51.986;4.666;2023-07-20T08:59:36;101686.34;;;29.85;33.98
38616;BME280;24370;51.986;4.666;2023-07-20T09:02:02;101684.78;;;28.87;34.38
38616;BME280;24370;51.986;4.666;2023-07-20T09:04:29;101685.44;;;28.78;35.24
38616;BME280;24370;51.986;4.666;2023-07-20T09:06:56;101685.50;;;28.65;35.55
38616;BME280;24370;51.986;4.666;2023-07-20T09:09:22;101685.59;;;28.01;37.29
38616;BME280;24370;51.986;4.666;2023-07-20T09:11:49;101690.09;;;28.76;35.65
38616;BME280;24370;51.986;4.666;2023-07-20T09:14:15;101682.81;;;29.14;34.86
38616;BME280;24370;51.986;4.666;2023-07-20T09:19:15;101687.09;;;29.87;32.88
38616;BME280;24370;51.986;4.666;2023-07-20T09:21:44;101686.06;;;29.66;33.48
38616;BME280;24370;51.986;4.666;2023-07-20T09:24:10;101682.81;;;29.96;31.73
38616;BME280;24370;51.986;4.666;2023-07-20T09:26:40;101678.22;;;31.62;30.55
38616;BME280;24370;51.986;4.666;2023-07-20T09:29:08;101685.53;;;33.33;31.71
38616;BME280;24370;51.986;4.666;2023-07-20T09:31:37;101681.13;;;33.98;26.47
38616;BME280;24370;51.986;4.666;2023-07-20T09:34:04;101675.50;;;31.83;28.87
38616;BME280;24370;51.986;4.666;2023-07-20T09:36:33;101674.19;;;31.56;29.47
38616;BME280;24370;51.986;4.666;2023-07-20T09:39:03;101672.50;;;30.58;31.16
38616;BME280;24370;51.986;4.666;2023-07-20T09:41:29;101669.19;;;31.30;32.96
38616;BME280;24370;51.986;4.666;2023-07-20T09:43:54;101672.41;;;31.88;31.36
38616;BME280;24370;51.986;4.666;2023-07-20T09:46:20;101674.56;;;30.98;31.82
38616;BME280;24370;51.986;4.666;2023-07-20T09:48:52;101673.72;;;30.98;31.98
38616;BME280;24370;51.986;4.666;2023-07-20T09:51:21;101667.06;;;31.55;32.21
38616;BME280;24370;51.986;4.666;2023-07-20T09:53:48;101672.53;;;30.90;31.78
38616;BME280;24370;51.986;4.666;2023-07-20T09:56:16;101671.16;;;31.71;32.22
38616;BME280;24370;51.986;4.666;2023-07-20T09:58:44;101670.00;;;32.25;30.44
38616;BME280;24370;51.986;4.666;2023-07-20T10:01:11;101664.31;;;31.24;31.47
38616;BME280;24370;51.986;4.666;2023-07-20T10:03:41;101664.38;;;32.48;29.30
38616;BME280;24370;51.986;4.666;2023-07-20T10:06:10;101663.06;;;34.45;26.16
38616;BME280;24370;51.986;4.666;2023-07-20T10:08:41;101666.31;;;34.94;24.93
38616;BME280;24370;51.986;4.666;2023-07-20T10:11:07;101658.63;;;35.08;25.28
38616;BME280;24370;51.986;4.666;2023-07-20T10:13:38;101666.16;;;33.47;26.88
38616;BME280;24370;51.986;4.666;2023-07-20T10:16:10;101670.22;;;33.71;27.72
38616;BME280;24370;51.986;4.666;2023-07-20T10:18:57;101665.66;;;34.64;27.14
38616;BME280;24370;51.986;4.666;2023-07-20T10:21:24;101666.38;;;34.39;26.36
38616;BME280;24370;51.986;4.666;2023-07-20T10:23:50;101661.22;;;34.63;27.89
38616;BME280;24370;51.986;4.666;2023-07-20T10:26:16;101668.69;;;34.97;26.25
38616;BME280;24370;51.986;4.666;2023-07-20T10:28:41;101655.28;;;35.93;25.39
38616;BME280;24370;51.986;4.666;2023-07-20T10:31:12;101659.63;;;35.51;25.98
38616;BME280;24370;51.986;4.666;2023-07-20T10:33:39;101660.63;;;34.70;26.49
38616;BME280;24370;51.986;4.666;2023-07-20T10:36:05;101649.81;;;35.58;25.56
38616;BME280;24370;51.986;4.666;2023-07-20T10:41:37;101652.94;;;35.98;24.88
38616;BME280;24370;51.986;4.666;2023-07-20T10:44:08;101659.78;;;33.76;27.08
38616;BME280;24370;51.986;4.666;2023-07-20T10:46:44;101660.75;;;33.27;27.30
38616;BME280;24370;51.986;4.666;2023-07-20T10:49:14;101643.38;;;32.81;27.36
38616;BME280;24370;51.986;4.666;2023-07-20T10:51:44;101651.22;;;32.24;29.28
38616;BME280;24370;51.986;4.666;2023-07-20T10:56:57;101656.72;;;32.12;31.17
38616;BME280;24370;51.986;4.666;2023-07-20T11:01:57;101651.91;;;32.16;28.92
38616;BME280;24370;51.986;4.666;2023-07-20T11:04:38;101642.69;;;32.38;28.53
38616;BME280;24370;51.986;4.666;2023-07-20T11:07:05;101645.63;;;33.15;28.82
38616;BME280;24370;51.986;4.666;2023-07-20T11:09:37;101643.06;;;33.43;28.19
38616;BME280;24370;51.986;4.666;2023-07-20T11:12:29;101638.34;;;32.67;27.17
38616;BME280;24370;51.986;4.666;2023-07-20T11:14:56;101637.47;;;31.75;29.75
38616;BME280;24370;51.986;4.666;2023-07-20T11:17:29;101635.94;;;31.30;30.24
38616;BME280;24370;51.986;4.666;2023-07-20T11:19:56;101628.16;;;30.83;30.67
38616;BME280;24370;51.986;4.666;2023-07-20T11:22:22;101630.19;;;31.66;29.80
38616;BME280;24370;51.986;4.666;2023-07-20T11:24:47;101642.44;;;31.70;29.36
38616;BME280;24370;51.986;4.666;2023-07-20T11:27:14;101630.25;;;31.75;28.78
38616;BME280;24370;51.986;4.666;2023-07-20T11:29:40;101630.78;;;31.06;30.68
38616;BME280;24370;51.986;4.666;2023-07-20T11:32:06;101627.22;;;31.05;31.19
38616;BME280;24370;51.986;4.666;2023-07-20T11:34:33;101629.25;;;30.48;31.37
38616;BME280;24370;51.986;4.666;2023-07-20T11:37:01;101627.91;;;29.63;31.46
38616;BME280;24370;51.986;4.666;2023-07-20T11:39:29;101630.06;;;31.04;30.55
38616;BME280;24370;51.986;4.666;2023-07-20T11:41:56;101618.94;;;32.32;30.00
38616;BME280;24370;51.986;4.666;2023-07-20T11:44:28;101620.13;;;33.27;28.02
38616;BME280;24370;51.986;4.666;2023-07-20T11:47:11;101610.50;;;34.18;26.57
38616;BME280;24370;51.986;4.666;2023-07-20T11:49:40;101621.13;;;32.87;26.93
38616;BME280;24370;51.986;4.666;2023-07-20T11:52:08;101611.25;;;33.45;25.14
38616;BME280;24370;51.986;4.666;2023-07-20T11:54:40;101610.72;;;30.32;30.32
38616;BME280;24370;51.986;4.666;2023-07-20T11:57:06;101611.44;;;32.85;28.06
38616;BME280;24370;51.986;4.666;2023-07-20T11:59:32;101609.63;;;32.85;28.46
38616;BME280;24370;51.986;4.666;2023-07-20T12:02:01;101606.56;;;33.85;26.08
38616;BME280;24370;51.986;4.666;2023-07-20T12:04:28;101603.41;;;34.17;25.87
38616;BME280;24370;51.986;4.666;2023-07-20T12:06:54;101601.28;;;34.75;25.65
38616;BME280;24370;51.986;4.666;2023-07-20T12:09:20;101597.19;;;34.89;25.81
38616;BME280;24370;51.986;4.666;2023-07-20T12:11:49;101596.25;;;34.16;25.12
38616;BME280;24370;51.986;4.666;2023-07-20T12:14:15;101597.72;;;34.92;24.24
38616;BME280;24370;51.986;4.666;2023-07-20T12:16:41;101611.97;;;32.49;26.73
38616;BME280;24370;51.986;4.666;2023-07-20T12:19:07;101610.03;;;33.10;26.03
38616;BME280;24370;51.986;4.666;2023-07-20T12:21:35;101603.72;;;33.09;25.89
38616;BME280;24370;51.986;4.666;2023-07-20T12:24:03;101601.75;;;32.12;26.23
38616;BME280;24370;51.986;4.666;2023-07-20T12:26:33;101595.38;;;32.13;25.21
38616;BME280;24370;51.986;4.666;2023-07-20T12:29:02;101599.16;;;32.32;26.71
38616;BME280;24370;51.986;4.666;2023-07-20T12:31:29;101599.34;;;32.79;25.79
38616;BME280;24370;51.986;4.666;2023-07-20T12:33:56;101594.75;;;33.28;25.17
38616;BME280;24370;51.986;4.666;2023-07-20T12:36:23;101598.81;;;33.52;26.02
38616;BME280;24370;51.986;4.666;2023-07-20T12:38:48;101590.75;;;32.25;26.96
38616;BME280;24370;51.986;4.666;2023-07-20T12:41:14;101599.06;;;31.50;27.55
38616;BME280;24370;51.986;4.666;2023-07-20T12:43:43;101595.78;;;30.83;27.63
38616;BME280;24370;51.986;4.666;2023-07-20T12:46:10;101587.50;;;32.60;25.85
38616;BME280;24370;51.986;4.666;2023-07-20T12:48:37;101581.50;;;32.96;26.14
38616;BME280;24370;51.986;4.666;2023-07-20T12:51:04;101582.94;;;32.32;25.58
38616;BME280;24370;51.986;4.666;2023-07-20T12:53:31;101582.72;;;30.88;29.35
38616;BME280;24370;51.986;4.666;2023-07-20T12:55:58;101580.94;;;31.10;27.81
38616;BME280;24370;51.986;4.666;2023-07-20T12:58:23;101575.81;;;30.74;28.09
38616;BME280;24370;51.986;4.666;2023-07-20T13:00:49;101577.09;;;32.26;28.06
38616;BME280;24370;51.986;4.666;2023-07-20T13:03:15;101572.75;;;30.35;28.54
38616;BME280;24370;51.986;4.666;2023-07-20T13:05:41;101574.84;;;30.32;28.22